createdAt,value
2023-05-14T00:01:34.030Z,5.53
2023-05-14T00:04:38.029Z,5.15
2023-05-14T00:07:41.359Z,5.30
2023-05-14T00:10:45.413Z,4.93
2023-05-14T00:13:49.061Z,4.88
2023-05-14T00:16:53.207Z,4.67
2023-05-14T00:19:56.942Z,5.47
2023-05-14T00:23:00.937Z,4.68
2023-05-14T00:26:04.779Z,4.90
2023-05-14T00:29:08.870Z,5.55
2023-05-14T00:32:12.553Z,10.20
2023-05-14T00:35:16.344Z,5.88
2023-05-14T00:38:20.090Z,4.82
2023-05-14T00:41:24.522Z,4.47
2023-05-14T00:44:28.224Z,5.93
2023-05-14T00:47:32.832Z,5.43
2023-05-14T00:50:36.782Z,5.10
2023-05-14T00:53:40.942Z,7.47
2023-05-14T00:56:46.635Z,7.43
2023-05-14T00:59:50.780Z,3.22
2023-05-14T01:02:54.750Z,3.17
2023-05-14T01:06:24.777Z,3.28
2023-05-14T01:09:43.336Z,4.18
2023-05-14T01:12:57.465Z,4.00
2023-05-14T01:16:02.464Z,4.40
2023-05-14T01:19:15.238Z,3.87
2023-05-14T01:22:19.105Z,3.80
2023-05-14T01:25:23.158Z,3.13
2023-05-14T01:28:34.218Z,3.50
2023-05-14T01:31:41.083Z,4.28
2023-05-14T01:34:46.836Z,4.10
2023-05-14T01:37:52.317Z,4.50
2023-05-14T01:40:57.432Z,4.03
2023-05-14T01:44:06.481Z,5.20
2023-05-14T01:47:10.077Z,4.65
2023-05-14T01:50:14.329Z,7.23
2023-05-14T01:53:17.988Z,8.00
2023-05-14T01:56:24.708Z,5.72
2023-05-14T01:59:30.323Z,6.30
2023-05-14T02:02:34.326Z,5.10
2023-05-14T02:05:37.997Z,4.93
2023-05-14T02:08:41.951Z,7.10
2023-05-14T02:11:45.643Z,6.80
2023-05-14T02:14:49.665Z,7.95
2023-05-14T02:17:53.355Z,6.45
2023-05-14T02:20:59.266Z,4.90
2023-05-14T02:24:02.851Z,4.40
2023-05-14T02:27:07.250Z,4.68
2023-05-14T02:30:11.726Z,4.70
2023-05-14T02:33:16.371Z,4.28
2023-05-14T02:36:20.019Z,4.60
2023-05-14T02:39:24.203Z,5.32
2023-05-14T02:42:27.796Z,5.13
2023-05-14T02:45:31.730Z,5.00
2023-05-14T02:48:35.239Z,5.15
2023-05-14T02:51:39.319Z,4.77
2023-05-14T02:54:43.738Z,5.03
2023-05-14T02:57:48.054Z,5.60
2023-05-14T03:00:52.247Z,5.32
2023-05-14T03:03:56.710Z,4.30
2023-05-14T03:07:00.413Z,4.10
2023-05-14T03:10:05.135Z,3.70
2023-05-14T03:13:08.720Z,4.20
2023-05-14T03:16:12.606Z,4.53
2023-05-14T03:19:16.659Z,4.10
2023-05-14T03:22:20.255Z,4.97
2023-05-14T03:25:23.862Z,4.25
2023-05-14T03:31:54.997Z,4.40
2023-05-14T03:34:58.301Z,3.95
2023-05-14T03:38:01.826Z,3.80
2023-05-14T03:41:04.746Z,4.50
2023-05-14T03:44:07.682Z,4.63
2023-05-14T03:47:10.908Z,6.20
2023-05-14T03:50:14.583Z,5.60
2023-05-14T03:53:18.506Z,5.40
2023-05-14T03:56:23.080Z,4.85
2023-05-14T03:59:26.563Z,5.28
2023-05-14T04:02:30.120Z,5.53
2023-05-14T04:05:33.213Z,5.80
2023-05-14T04:08:36.261Z,3.40
2023-05-14T04:11:40.354Z,3.25
2023-05-14T04:14:43.359Z,3.13
2023-05-14T04:17:46.790Z,3.22
2023-05-14T04:20:49.766Z,3.88
2023-05-14T04:23:53.072Z,3.67
2023-05-14T04:26:56.565Z,3.30
2023-05-14T04:29:59.769Z,3.08
2023-05-14T04:33:03.245Z,3.08
2023-05-14T04:36:07.885Z,2.55
2023-05-14T04:39:12.853Z,2.30
2023-05-14T04:42:16.405Z,3.47
2023-05-14T04:45:20.871Z,2.10
2023-05-14T04:48:24.880Z,1.77
2023-05-14T04:51:28.234Z,2.30
2023-05-14T04:54:31.429Z,1.83
2023-05-14T04:57:34.372Z,2.22
2023-05-14T05:00:38.328Z,2.50
2023-05-14T05:03:41.302Z,2.50
2023-05-14T05:06:44.689Z,2.40
2023-05-14T05:09:47.636Z,3.67
2023-05-14T05:12:51.682Z,3.65
2023-05-14T05:15:54.673Z,3.25
2023-05-14T05:18:57.827Z,3.25
2023-05-14T05:22:01.821Z,3.00
2023-05-14T05:25:07.269Z,2.30
2023-05-14T05:28:10.881Z,2.40
2023-05-14T05:31:16.574Z,2.75
2023-05-14T05:34:21.407Z,3.28
2023-05-14T05:37:25.479Z,3.33
2023-05-14T05:40:29.101Z,2.27
2023-05-14T05:43:34.611Z,2.15
2023-05-14T05:46:38.575Z,2.55
2023-05-14T05:49:42.752Z,2.22
2023-05-14T05:52:46.371Z,2.22
2023-05-14T05:55:52.466Z,3.43
2023-05-14T05:58:55.802Z,2.70
2023-05-14T06:01:59.985Z,2.05
2023-05-14T06:05:03.749Z,2.28
2023-05-14T06:08:07.763Z,1.90
2023-05-14T06:11:11.322Z,2.37
2023-05-14T06:14:15.306Z,3.58
2023-05-14T06:17:18.957Z,2.40
2023-05-14T06:20:23.466Z,2.58
2023-05-14T06:23:27.656Z,4.35
2023-05-14T06:26:31.876Z,3.13
2023-05-14T06:29:35.437Z,2.92
2023-05-14T06:32:39.573Z,2.88
2023-05-14T06:35:42.891Z,3.15
2023-05-14T06:38:46.685Z,2.53
2023-05-14T06:41:50.316Z,3.47
2023-05-14T06:44:54.346Z,3.22
2023-05-14T06:47:57.988Z,3.13
2023-05-14T06:51:02.099Z,4.43
2023-05-14T06:54:05.845Z,3.33
2023-05-14T06:57:10.083Z,6.07
2023-05-14T07:00:15.000Z,4.10
2023-05-14T07:03:18.787Z,4.28
2023-05-14T07:06:23.455Z,3.47
2023-05-14T07:09:27.480Z,2.70
2023-05-14T07:12:31.234Z,3.63
2023-05-14T07:15:34.871Z,3.10
2023-05-14T07:18:38.842Z,2.80
2023-05-14T07:21:42.426Z,2.60
2023-05-14T07:24:46.288Z,1.67
2023-05-14T07:27:49.825Z,1.90
2023-05-14T07:30:53.862Z,1.60
2023-05-14T07:33:57.336Z,2.70
2023-05-14T07:37:02.672Z,2.50
2023-05-14T07:40:06.822Z,1.90
2023-05-14T07:43:12.362Z,1.80
2023-05-14T07:46:16.162Z,1.67
2023-05-14T07:49:20.176Z,2.15
2023-05-14T07:52:24.179Z,1.90
2023-05-14T07:55:28.072Z,1.98
2023-05-14T07:58:32.461Z,3.33
2023-05-14T08:01:37.839Z,2.72
2023-05-14T08:04:42.508Z,3.95
2023-05-14T08:07:46.383Z,4.72
2023-05-14T08:10:49.260Z,2.47
2023-05-14T08:13:53.226Z,2.47
2023-05-14T08:16:56.402Z,3.28
2023-05-14T08:20:00.172Z,1.90
2023-05-14T08:23:04.092Z,1.50
2023-05-14T08:26:08.177Z,1.75
2023-05-14T08:29:12.979Z,1.27
2023-05-14T08:32:23.365Z,1.10
2023-05-14T08:35:27.621Z,1.10
2023-05-14T08:38:31.797Z,0.80
2023-05-14T08:41:35.408Z,1.10
2023-05-14T08:44:53.075Z,1.50
2023-05-14T08:47:58.446Z,1.23
2023-05-14T08:51:03.148Z,1.30
2023-05-14T08:54:07.408Z,2.08
2023-05-14T08:57:12.278Z,1.67
2023-05-14T09:00:16.378Z,1.73
2023-05-14T09:03:21.602Z,1.55
2023-05-14T09:06:26.259Z,1.05
2023-05-14T09:09:30.769Z,1.20
2023-05-14T09:12:34.653Z,2.80
2023-05-14T09:15:42.468Z,1.33
2023-05-14T09:18:46.595Z,1.50
2023-05-14T09:21:51.425Z,1.30
2023-05-14T09:25:10.166Z,1.50
2023-05-14T09:28:17.626Z,1.10
2023-05-14T09:31:21.367Z,0.93
2023-05-14T09:34:28.690Z,0.77
2023-05-14T09:37:37.342Z,1.10
2023-05-14T09:40:41.455Z,1.25
2023-05-14T09:43:45.157Z,1.70
2023-05-14T09:46:49.714Z,1.50
2023-05-14T09:49:53.858Z,1.30
2023-05-14T09:52:57.912Z,1.27
2023-05-14T09:56:01.570Z,1.15
2023-05-14T09:59:05.969Z,1.10
2023-05-14T10:02:23.202Z,1.30
2023-05-14T10:05:27.724Z,1.98
2023-05-14T10:08:35.082Z,1.55
2023-05-14T10:11:39.995Z,1.17
2023-05-14T10:14:50.357Z,1.80
2023-05-14T10:17:59.644Z,2.23
2023-05-14T10:21:32.086Z,1.35
2023-05-14T10:24:36.928Z,1.50
2023-05-14T10:27:41.585Z,2.08
2023-05-14T10:30:47.648Z,1.48
2023-05-14T10:33:51.768Z,1.60
2023-05-14T10:36:54.701Z,1.08
2023-05-14T10:40:03.471Z,1.00
2023-05-14T10:43:06.826Z,1.40
2023-05-14T10:46:11.713Z,1.75
2023-05-14T10:49:19.291Z,2.17
2023-05-14T10:52:27.480Z,1.67
2023-05-14T10:55:31.644Z,1.50
2023-05-14T10:58:39.725Z,1.88
2023-05-14T11:01:43.452Z,2.00
2023-05-14T11:04:59.158Z,1.30
2023-05-14T11:08:08.356Z,1.88
2023-05-14T11:11:12.239Z,1.90
2023-05-14T11:14:15.478Z,1.25
2023-05-14T11:17:18.996Z,1.45
2023-05-14T11:20:22.880Z,1.30
2023-05-14T11:23:27.021Z,1.77
2023-05-14T11:26:30.413Z,1.45
2023-05-14T11:29:34.018Z,1.35
2023-05-14T11:32:38.352Z,1.10
2023-05-14T11:35:45.913Z,1.10
2023-05-14T11:38:51.636Z,1.33
2023-05-14T11:41:54.600Z,1.30
2023-05-14T11:44:57.730Z,1.20
2023-05-14T11:48:00.659Z,1.50
2023-05-14T11:51:05.759Z,1.50
2023-05-14T11:54:08.673Z,2.08
2023-05-14T11:57:20.048Z,2.30
2023-05-14T12:00:24.759Z,1.60
2023-05-14T12:03:30.477Z,1.90
2023-05-14T12:06:33.829Z,1.50
2023-05-14T12:09:43.547Z,1.83
2023-05-14T12:12:49.387Z,1.55
2023-05-14T12:15:57.607Z,1.92
2023-05-14T12:19:02.258Z,2.28
2023-05-14T12:22:05.393Z,2.13
2023-05-14T12:25:14.130Z,2.10
2023-05-14T12:28:19.400Z,2.20
2023-05-14T12:31:32.374Z,1.70
2023-05-14T12:35:02.064Z,1.92
2023-05-14T12:38:05.712Z,2.73
2023-05-14T12:41:08.974Z,2.58
2023-05-14T12:44:12.708Z,2.65
2023-05-14T12:47:16.297Z,3.15
2023-05-14T12:50:19.571Z,2.20
2023-05-14T12:53:23.163Z,2.37
2023-05-14T12:56:29.011Z,2.60
2023-05-14T12:59:31.829Z,2.53
2023-05-14T13:02:42.204Z,2.33
2023-05-14T13:05:46.834Z,3.00
2023-05-14T13:08:50.467Z,3.60
2023-05-14T13:11:54.556Z,3.25
2023-05-14T13:14:58.448Z,2.92
2023-05-14T13:18:02.535Z,2.90
2023-05-14T13:21:06.892Z,3.10
2023-05-14T13:24:10.628Z,3.00
2023-05-14T13:27:13.618Z,2.30
2023-05-14T13:30:17.462Z,2.30
2023-05-14T13:33:20.312Z,2.60
2023-05-14T13:36:23.690Z,4.00
2023-05-14T13:39:27.795Z,3.30
2023-05-14T13:42:31.726Z,3.20
2023-05-14T13:45:35.678Z,3.72
2023-05-14T13:48:38.674Z,3.87
2023-05-14T13:51:41.638Z,5.43
2023-05-14T13:54:44.735Z,4.10
2023-05-14T13:57:47.652Z,2.80
2023-05-14T14:00:51.026Z,3.00
2023-05-14T14:03:54.955Z,2.60
2023-05-14T14:06:58.585Z,3.67
2023-05-14T14:10:02.827Z,11.43
2023-05-14T14:13:06.261Z,9.45
2023-05-14T14:16:09.584Z,5.13
2023-05-14T14:19:15.441Z,6.47
2023-05-14T14:22:19.360Z,4.57
2023-05-14T14:25:23.507Z,3.92
2023-05-14T14:28:27.345Z,3.50
2023-05-14T14:31:30.379Z,3.85
2023-05-14T14:34:33.308Z,3.83
2023-05-14T14:37:36.211Z,3.95
2023-05-14T14:40:39.817Z,2.08
2023-05-14T14:43:43.958Z,3.05
2023-05-14T14:46:48.311Z,3.97
2023-05-14T14:49:51.967Z,4.47
2023-05-14T14:52:54.815Z,5.93
2023-05-14T14:55:58.680Z,4.10
2023-05-14T14:59:02.705Z,4.00
2023-05-14T15:02:06.289Z,2.90
2023-05-14T15:05:09.836Z,2.50
2023-05-14T15:08:13.814Z,2.58
2023-05-14T15:11:17.653Z,2.60
2023-05-14T15:14:20.530Z,2.28
2023-05-14T15:17:24.133Z,2.90
2023-05-14T15:20:27.352Z,2.93
2023-05-14T15:23:30.536Z,2.47
2023-05-14T15:26:34.224Z,2.80
2023-05-14T15:29:37.197Z,2.90
2023-05-14T15:32:40.278Z,3.95
2023-05-14T15:35:44.354Z,3.20
2023-05-14T15:38:47.537Z,3.30
2023-05-14T15:41:51.254Z,2.80
2023-05-14T15:44:54.169Z,3.38
2023-05-14T15:47:57.891Z,3.35
2023-05-14T15:51:00.883Z,3.43
2023-05-14T15:54:03.911Z,3.28
2023-05-14T15:57:07.664Z,3.70
2023-05-14T16:00:11.849Z,2.78
2023-05-14T16:03:15.578Z,3.22
2023-05-14T16:06:19.672Z,2.90
2023-05-14T16:09:23.309Z,2.67
2023-05-14T16:12:27.268Z,2.38
2023-05-14T16:15:30.916Z,2.58
2023-05-14T16:18:35.467Z,2.38
2023-05-14T16:21:38.794Z,2.43
2023-05-14T16:24:42.522Z,2.50
2023-05-14T16:27:46.654Z,2.35
2023-05-14T16:30:50.736Z,2.40
2023-05-14T16:33:54.855Z,2.20
2023-05-14T16:37:00.239Z,2.17
2023-05-14T16:40:03.552Z,2.40
2023-05-14T16:43:06.917Z,2.33
2023-05-14T16:46:10.189Z,2.35
2023-05-14T16:49:15.026Z,2.50
2023-05-14T16:52:18.705Z,2.33
2023-05-14T16:55:22.711Z,2.50
2023-05-14T16:58:26.764Z,2.40
2023-05-14T17:01:30.658Z,2.25
2023-05-14T17:04:38.991Z,2.35
2023-05-14T17:07:42.794Z,2.30
2023-05-14T17:10:46.318Z,2.30
2023-05-14T17:13:50.311Z,2.40
2023-05-14T17:16:55.506Z,2.20
2023-05-14T17:19:59.144Z,2.08
2023-05-14T17:23:02.796Z,2.20
2023-05-14T17:26:06.787Z,2.20
2023-05-14T17:29:10.614Z,1.83
2023-05-14T17:32:14.612Z,1.88
2023-05-14T17:35:17.922Z,2.05
2023-05-14T17:38:21.896Z,1.90
2023-05-14T17:41:25.585Z,1.98
2023-05-14T17:44:29.509Z,2.10
2023-05-14T17:47:33.147Z,2.22
2023-05-14T17:50:37.314Z,2.28
2023-05-14T17:53:41.009Z,2.23
2023-05-14T17:56:45.038Z,2.25
2023-05-14T17:59:49.005Z,2.10
2023-05-14T18:02:53.050Z,2.35
2023-05-14T18:05:56.690Z,2.10
2023-05-14T18:09:01.199Z,2.30
2023-05-14T18:12:05.012Z,2.17
2023-05-14T18:15:09.344Z,2.38
2023-05-14T18:18:13.270Z,1.63
2023-05-14T18:21:17.283Z,2.40
2023-05-14T18:24:21.019Z,2.30
2023-05-14T18:27:25.053Z,1.70
2023-05-14T18:30:28.840Z,2.38
2023-05-14T18:33:36.782Z,2.15
2023-05-14T18:36:40.653Z,2.30
2023-05-14T18:39:44.383Z,1.90
2023-05-14T18:42:47.961Z,2.22
2023-05-14T18:45:51.968Z,2.10
2023-05-14T18:48:57.152Z,2.50
2023-05-14T18:52:01.102Z,2.22
2023-05-14T18:55:05.078Z,2.10
2023-05-14T18:58:09.214Z,2.05
2023-05-14T19:01:12.579Z,2.17
2023-05-14T19:04:16.735Z,2.28
2023-05-14T19:07:23.513Z,2.05
2023-05-14T19:10:27.653Z,2.13
2023-05-14T19:13:31.447Z,1.63
2023-05-14T19:16:35.435Z,2.17
2023-05-14T19:19:39.777Z,2.10
2023-05-14T19:22:42.582Z,2.00
2023-05-14T19:25:45.859Z,2.10
2023-05-14T19:28:49.049Z,1.63
2023-05-14T19:31:52.772Z,2.10
2023-05-14T19:34:56.828Z,1.77
2023-05-14T19:38:00.789Z,1.77
2023-05-14T19:41:04.715Z,2.13
2023-05-14T19:44:08.623Z,2.20
2023-05-14T19:47:12.393Z,2.00
2023-05-14T19:50:16.362Z,1.98
2023-05-14T19:53:20.269Z,2.33
2023-05-14T19:56:25.706Z,2.47
2023-05-14T19:59:31.175Z,2.03
2023-05-14T20:02:34.586Z,2.08
2023-05-14T20:05:38.550Z,1.70
2023-05-14T20:08:42.518Z,2.08
2023-05-14T20:11:46.420Z,1.83
2023-05-14T20:14:50.111Z,1.80
2023-05-14T20:17:53.827Z,1.88
2023-05-14T20:20:57.547Z,2.00
2023-05-14T20:24:01.498Z,2.00
2023-05-14T20:27:05.548Z,1.93
2023-05-14T20:30:10.068Z,1.52
2023-05-14T20:33:14.438Z,2.10
2023-05-14T20:36:18.545Z,1.92
2023-05-14T20:39:22.812Z,2.03
2023-05-14T20:42:26.432Z,1.93
2023-05-14T20:45:30.354Z,2.05
2023-05-14T20:48:35.578Z,2.00
2023-05-14T20:51:39.064Z,1.90
2023-05-14T20:54:43.194Z,2.10
2023-05-14T20:57:46.691Z,1.87
2023-05-14T21:00:50.763Z,2.13
2023-05-14T21:03:54.593Z,1.90
2023-05-14T21:06:59.002Z,1.88
2023-05-14T21:10:03.050Z,1.83
2023-05-14T21:13:07.993Z,1.73
2023-05-14T21:16:13.169Z,1.80
2023-05-14T21:19:16.303Z,1.73
2023-05-14T21:22:19.605Z,1.77
2023-05-14T21:25:23.896Z,2.25
2023-05-14T21:28:27.947Z,1.90
2023-05-14T21:31:32.035Z,1.70
2023-05-14T21:34:35.713Z,2.50
2023-05-14T21:37:40.659Z,1.70
2023-05-14T21:40:44.156Z,2.08
2023-05-14T21:43:48.217Z,1.50
2023-05-14T21:46:51.836Z,1.83
2023-05-14T21:49:56.096Z,1.67
2023-05-14T21:52:59.622Z,1.50
2023-05-14T21:56:03.343Z,1.65
2023-05-14T21:59:07.081Z,1.57
2023-05-14T22:02:11.246Z,1.80
2023-05-14T22:05:14.208Z,2.10
2023-05-14T22:08:18.861Z,1.80
2023-05-14T22:11:22.659Z,2.10
2023-05-14T22:14:28.080Z,1.80
2023-05-14T22:17:31.657Z,1.83
2023-05-14T22:20:35.729Z,1.83
2023-05-14T22:23:39.696Z,1.50
2023-05-14T22:26:43.654Z,1.65
2023-05-14T22:29:46.929Z,1.80
2023-05-14T22:32:50.954Z,1.85
2023-05-14T22:35:54.509Z,1.45
2023-05-14T22:38:58.645Z,1.90
2023-05-14T22:42:02.247Z,2.72
2023-05-14T22:45:06.657Z,1.90
2023-05-14T22:48:10.378Z,2.03
2023-05-14T22:51:14.240Z,1.50
2023-05-14T22:54:17.648Z,2.65
2023-05-14T22:57:22.739Z,2.72
2023-05-14T23:00:26.699Z,3.13
2023-05-14T23:03:30.837Z,2.08
2023-05-14T23:06:34.016Z,1.63
2023-05-14T23:09:37.893Z,2.22
2023-05-14T23:12:41.530Z,1.60
2023-05-14T23:15:45.600Z,1.83
2023-05-14T23:18:49.050Z,3.63
2023-05-14T23:21:52.894Z,2.10
2023-05-14T23:24:56.794Z,1.42
2023-05-14T23:28:00.799Z,2.33
2023-05-14T23:31:04.769Z,2.13
2023-05-14T23:34:08.532Z,2.83
2023-05-14T23:37:13.580Z,2.10
2023-05-14T23:40:17.140Z,1.70
2023-05-14T23:43:21.087Z,1.38
2023-05-14T23:46:25.015Z,1.20
2023-05-14T23:49:28.350Z,1.15
2023-05-14T23:52:32.255Z,5.07
2023-05-14T23:55:36.418Z,3.22
2023-05-14T23:58:40.508Z,1.83
